sensor_id;sensor_type;location;lat;lon;timestamp;pressure;altitude;pressure_sealevel;temperature;humidity
79347;BME280;68815;48.810;44.482;2023-12-20T00:01:44;100869;;;2.4;100
79347;BME280;68815;48.810;44.482;2023-12-20T00:04:47;100869;;;2.4;100
79347;BME280;68815;48.810;44.482;2023-12-20T00:07:49;100870;;;2.5;100
79347;BME280;68815;48.810;44.482;2023-12-20T00:10:50;100879;;;2.5;100
79347;BME280;68815;48.810;44.482;2023-12-20T00:13:53;100885;;;2.5;100
79347;BME280;68815;48.810;44.482;2023-12-20T00:16:55;100894;;;2.5;100
79347;BME280;68815;48.810;44.482;2023-12-20T00:19:56;100886;;;2.5;100
79347;BME280;68815;48.810;44.482;2023-12-20T00:22:58;100886;;;2.4;100
79347;BME280;68815;48.810;44.482;2023-12-20T00:26:00;100893;;;2.5;100
79347;BME280;68815;48.810;44.482;2023-12-20T00:29:02;100890;;;2.4;100
79347;BME280;68815;48.810;44.482;2023-12-20T00:32:04;100891;;;2.3;100
79347;BME280;68815;48.810;44.482;2023-12-20T00:35:06;100884;;;2.3;100
79347;BME280;68815;48.810;44.482;2023-12-20T00:38:08;100884;;;2.3;100
79347;BME280;68815;48.810;44.482;2023-12-20T00:41:10;100882;;;2.4;100
79347;BME280;68815;48.810;44.482;2023-12-20T00:44:11;100884;;;2.3;100
79347;BME280;68815;48.810;44.482;2023-12-20T00:47:13;100885;;;2.4;100
79347;BME280;68815;48.810;44.482;2023-12-20T00:50:15;100881;;;2.3;100
79347;BME280;68815;48.810;44.482;2023-12-20T00:53:17;100879;;;2.3;100
79347;BME280;68815;48.810;44.482;2023-12-20T00:56:19;100878;;;2.4;100
79347;BME280;68815;48.810;44.482;2023-12-20T00:59:21;100871;;;2.4;100
79347;BME280;68815;48.810;44.482;2023-12-20T01:02:22;100873;;;2.4;100
79347;BME280;68815;48.810;44.482;2023-12-20T01:05:25;100881;;;2.4;99.5
79347;BME280;68815;48.810;44.482;2023-12-20T01:08:27;100888;;;2.3;99
79347;BME280;68815;48.810;44.482;2023-12-20T01:11:29;100869;;;2.2;99.7
79347;BME280;68815;48.810;44.482;2023-12-20T01:14:31;100869;;;2.1;99.4
79347;BME280;68815;48.810;44.482;2023-12-20T01:17:33;100863;;;2.1;99.4
79347;BME280;68815;48.810;44.482;2023-12-20T01:20:34;100857;;;2.2;99.3
79347;BME280;68815;48.810;44.482;2023-12-20T01:23:36;100859;;;2.2;99
79347;BME280;68815;48.810;44.482;2023-12-20T01:26:38;100857;;;2.2;98.9
79347;BME280;68815;48.810;44.482;2023-12-20T01:29:40;100848;;;2.1;99.1
79347;BME280;68815;48.810;44.482;2023-12-20T01:32:42;100843;;;2.2;99
79347;BME280;68815;48.810;44.482;2023-12-20T01:35:43;100847;;;2.1;98.3
79347;BME280;68815;48.810;44.482;2023-12-20T01:38:45;100845;;;2.2;98.2
79347;BME280;68815;48.810;44.482;2023-12-20T01:41:47;100843;;;2.2;98.2
79347;BME280;68815;48.810;44.482;2023-12-20T01:44:49;100833;;;2.3;97.5
79347;BME280;68815;48.810;44.482;2023-12-20T01:47:51;100830;;;2.2;97.4
79347;BME280;68815;48.810;44.482;2023-12-20T01:50:53;100825;;;2.2;97.5
79347;BME280;68815;48.810;44.482;2023-12-20T01:53:56;100829;;;2.2;97.8
79347;BME280;68815;48.810;44.482;2023-12-20T01:56:59;100834;;;2.1;97.9
79347;BME280;68815;48.810;44.482;2023-12-20T02:00:01;100830;;;2.1;98.3
79347;BME280;68815;48.810;44.482;2023-12-20T02:03:11;100833;;;2.2;98.1
79347;BME280;68815;48.810;44.482;2023-12-20T02:06:14;100825;;;2.2;97.9
79347;BME280;68815;48.810;44.482;2023-12-20T02:09:16;100821;;;2.2;97.6
79347;BME280;68815;48.810;44.482;2023-12-20T02:12:18;100826;;;2.2;97.5
79347;BME280;68815;48.810;44.482;2023-12-20T02:15:20;100817;;;2.3;97.4
79347;BME280;68815;48.810;44.482;2023-12-20T02:18:23;100814;;;2.2;97.2
79347;BME280;68815;48.810;44.482;2023-12-20T02:21:25;100805;;;2.2;97
79347;BME280;68815;48.810;44.482;2023-12-20T02:24:27;100819;;;2.1;97.7
79347;BME280;68815;48.810;44.482;2023-12-20T02:27:29;100821;;;2.2;97.7
79347;BME280;68815;48.810;44.482;2023-12-20T02:30:31;100833;;;2.1;97.7
79347;BME280;68815;48.810;44.482;2023-12-20T02:33:33;100825;;;2.2;97.7
79347;BME280;68815;48.810;44.482;2023-12-20T02:36:34;100814;;;2.2;97.4
79347;BME280;68815;48.810;44.482;2023-12-20T02:39:36;100817;;;2.1;97.6
79347;BME280;68815;48.810;44.482;2023-12-20T02:42:38;100804;;;2.2;97.7
79347;BME280;68815;48.810;44.482;2023-12-20T02:45:41;100808;;;2.2;97.6
79347;BME280;68815;48.810;44.482;2023-12-20T02:48:42;100806;;;2.2;97.5
79347;BME280;68815;48.810;44.482;2023-12-20T02:51:44;100813;;;2.3;97.5
79347;BME280;68815;48.810;44.482;2023-12-20T02:54:46;100811;;;2.3;97.5
79347;BME280;68815;48.810;44.482;2023-12-20T02:57:48;100820;;;2.3;97.5
79347;BME280;68815;48.810;44.482;2023-12-20T03:00:50;100815;;;2.2;98
79347;BME280;68815;48.810;44.482;2023-12-20T03:03:52;100823;;;2.3;98.1
79347;BME280;68815;48.810;44.482;2023-12-20T03:06:55;100825;;;2.3;98.1
79347;BME280;68815;48.810;44.482;2023-12-20T03:09:56;100831;;;2.3;98.4
79347;BME280;68815;48.810;44.482;2023-12-20T03:12:58;100826;;;2.3;98.6
79347;BME280;68815;48.810;44.482;2023-12-20T03:16:00;100836;;;2.3;98.2
79347;BME280;68815;48.810;44.482;2023-12-20T03:19:02;100836;;;2.3;98.4
79347;BME280;68815;48.810;44.482;2023-12-20T03:22:04;100838;;;2.4;98.3
79347;BME280;68815;48.810;44.482;2023-12-20T03:25:06;100842;;;2.4;98.7
79347;BME280;68815;48.810;44.482;2023-12-20T03:28:08;100845;;;2.4;98.6
79347;BME280;68815;48.810;44.482;2023-12-20T03:31:10;100846;;;2.4;98.5
79347;BME280;68815;48.810;44.482;2023-12-20T03:34:12;100850;;;2.5;97.9
79347;BME280;68815;48.810;44.482;2023-12-20T03:37:13;100851;;;2.6;97.3
79347;BME280;68815;48.810;44.482;2023-12-20T03:40:15;100849;;;2.6;97.2
79347;BME280;68815;48.810;44.482;2023-12-20T03:43:17;100856;;;2.6;97.6
79347;BME280;68815;48.810;44.482;2023-12-20T03:46:19;100863;;;2.6;97.9
79347;BME280;68815;48.810;44.482;2023-12-20T03:49:21;100866;;;2.5;98.1
79347;BME280;68815;48.810;44.482;2023-12-20T03:52:22;100856;;;2.6;98.4
79347;BME280;68815;48.810;44.482;2023-12-20T03:55:24;100851;;;2.6;98.2
79347;BME280;68815;48.810;44.482;2023-12-20T03:58:26;100852;;;2.5;98.4
79347;BME280;68815;48.810;44.482;2023-12-20T04:01:28;100856;;;2.6;98.7
79347;BME280;68815;48.810;44.482;2023-12-20T04:04:30;100856;;;2.5;98.8
79347;BME280;68815;48.810;44.482;2023-12-20T04:07:32;100846;;;2.6;99.5
79347;BME280;68815;48.810;44.482;2023-12-20T04:10:34;100839;;;2.5;99.7
79347;BME280;68815;48.810;44.482;2023-12-20T04:13:36;100844;;;2.6;99.8
79347;BME280;68815;48.810;44.482;2023-12-20T04:16:38;100838;;;2.5;100
79347;BME280;68815;48.810;44.482;2023-12-20T04:19:40;100843;;;2.5;100
79347;BME280;68815;48.810;44.482;2023-12-20T04:22:42;100843;;;2.6;100
79347;BME280;68815;48.810;44.482;2023-12-20T04:25:44;100843;;;2.5;100
79347;BME280;68815;48.810;44.482;2023-12-20T04:28:46;100845;;;2.6;100
79347;BME280;68815;48.810;44.482;2023-12-20T04:31:48;100843;;;2.5;100
79347;BME280;68815;48.810;44.482;2023-12-20T04:34:50;100842;;;2.5;100
79347;BME280;68815;48.810;44.482;2023-12-20T04:37:51;100842;;;2.6;100
79347;BME280;68815;48.810;44.482;2023-12-20T04:40:53;100845;;;2.6;100
79347;BME280;68815;48.810;44.482;2023-12-20T04:43:55;100842;;;2.7;100
79347;BME280;68815;48.810;44.482;2023-12-20T04:46:57;100841;;;2.7;100
79347;BME280;68815;48.810;44.482;2023-12-20T04:49:59;100837;;;2.7;100
79347;BME280;68815;48.810;44.482;2023-12-20T04:53:01;100844;;;2.7;100
79347;BME280;68815;48.810;44.482;2023-12-20T04:56:02;100846;;;2.8;99.7
79347;BME280;68815;48.810;44.482;2023-12-20T04:59:05;100852;;;2.8;99.6
79347;BME280;68815;48.810;44.482;2023-12-20T05:02:06;100846;;;2.8;99.5
79347;BME280;68815;48.810;44.482;2023-12-20T05:05:08;100855;;;2.7;99.6
79347;BME280;68815;48.810;44.482;2023-12-20T05:08:10;100858;;;2.8;99.7
79347;BME280;68815;48.810;44.482;2023-12-20T05:11:13;100872;;;2.7;99.8
79347;BME280;68815;48.810;44.482;2023-12-20T05:14:15;100880;;;2.7;99.9
79347;BME280;68815;48.810;44.482;2023-12-20T05:17:16;100876;;;2.8;100
79347;BME280;68815;48.810;44.482;2023-12-20T05:20:18;100876;;;2.7;100
79347;BME280;68815;48.810;44.482;2023-12-20T05:23:20;100876;;;2.8;100
79347;BME280;68815;48.810;44.482;2023-12-20T05:26:22;100879;;;2.8;99.8
79347;BME280;68815;48.810;44.482;2023-12-20T05:29:24;100888;;;3;99.5
79347;BME280;68815;48.810;44.482;2023-12-20T05:32:26;100879;;;2.9;99.3
79347;BME280;68815;48.810;44.482;2023-12-20T05:35:28;100884;;;3;99.7
79347;BME280;68815;48.810;44.482;2023-12-20T05:38:29;100886;;;2.9;99.6
79347;BME280;68815;48.810;44.482;2023-12-20T05:41:31;100890;;;2.9;99.9
79347;BME280;68815;48.810;44.482;2023-12-20T05:44:33;100902;;;3;100
79347;BME280;68815;48.810;44.482;2023-12-20T05:47:35;100904;;;3;100
79347;BME280;68815;48.810;44.482;2023-12-20T05:50:37;100905;;;3;100
79347;BME280;68815;48.810;44.482;2023-12-20T05:53:39;100905;;;3;100
79347;BME280;68815;48.810;44.482;2023-12-20T05:56:41;100910;;;3.1;100
79347;BME280;68815;48.810;44.482;2023-12-20T05:59:43;100909;;;3.1;100
79347;BME280;68815;48.810;44.482;2023-12-20T06:02:45;100906;;;3;100
79347;BME280;68815;48.810;44.482;2023-12-20T06:05:47;100908;;;3;100
79347;BME280;68815;48.810;44.482;2023-12-20T06:08:49;100909;;;2.9;100
79347;BME280;68815;48.810;44.482;2023-12-20T06:11:52;100898;;;2.9;100
79347;BME280;68815;48.810;44.482;2023-12-20T06:14:54;100887;;;3;100
79347;BME280;68815;48.810;44.482;2023-12-20T06:17:55;100900;;;3;100
79347;BME280;68815;48.810;44.482;2023-12-20T06:20:57;100898;;;3.1;100
79347;BME280;68815;48.810;44.482;2023-12-20T06:23:59;100903;;;3.1;100
79347;BME280;68815;48.810;44.482;2023-12-20T06:27:01;100905;;;3.1;100
79347;BME280;68815;48.810;44.482;2023-12-20T06:30:04;100913;;;3.2;100
79347;BME280;68815;48.810;44.482;2023-12-20T06:33:07;100908;;;3.2;100
79347;BME280;68815;48.810;44.482;2023-12-20T06:36:11;100908;;;3.2;100
79347;BME280;68815;48.810;44.482;2023-12-20T06:39:13;100901;;;3.2;100
79347;BME280;68815;48.810;44.482;2023-12-20T06:42:15;100894;;;3.2;100
79347;BME280;68815;48.810;44.482;2023-12-20T06:45:17;100894;;;3.1;100
79347;BME280;68815;48.810;44.482;2023-12-20T06:48:19;100888;;;3.2;100
79347;BME280;68815;48.810;44.482;2023-12-20T06:51:21;100897;;;3.2;100
79347;BME280;68815;48.810;44.482;2023-12-20T06:54:23;100903;;;3.1;100
79347;BME280;68815;48.810;44.482;2023-12-20T06:57:25;100904;;;3.1;100
79347;BME280;68815;48.810;44.482;2023-12-20T07:00:26;100900;;;3.3;100
79347;BME280;68815;48.810;44.482;2023-12-20T07:03:29;100901;;;3.2;100
79347;BME280;68815;48.810;44.482;2023-12-20T07:06:31;100899;;;3.3;100
79347;BME280;68815;48.810;44.482;2023-12-20T07:09:33;100900;;;3.4;100
79347;BME280;68815;48.810;44.482;2023-12-20T07:12:35;100899;;;3.4;100
79347;BME280;68815;48.810;44.482;2023-12-20T07:15:38;100892;;;3.4;100
79347;BME280;68815;48.810;44.482;2023-12-20T07:18:40;100888;;;3.5;100
79347;BME280;68815;48.810;44.482;2023-12-20T07:21:42;100878;;;3.5;100
79347;BME280;68815;48.810;44.482;2023-12-20T07:24:44;100883;;;3.4;100
79347;BME280;68815;48.810;44.482;2023-12-20T07:27:45;100888;;;3.5;100
79347;BME280;68815;48.810;44.482;2023-12-20T07:30:47;100882;;;3.5;100
79347;BME280;68815;48.810;44.482;2023-12-20T07:33:49;100878;;;3.5;100
79347;BME280;68815;48.810;44.482;2023-12-20T07:36:51;100885;;;3.5;100
79347;BME280;68815;48.810;44.482;2023-12-20T07:39:53;100885;;;3.5;100
79347;BME280;68815;48.810;44.482;2023-12-20T07:42:54;100884;;;3.6;100
79347;BME280;68815;48.810;44.482;2023-12-20T07:45:56;100886;;;3.6;100
79347;BME280;68815;48.810;44.482;2023-12-20T07:48:58;100890;;;3.7;100
79347;BME280;68815;48.810;44.482;2023-12-20T07:52:00;100881;;;3.7;100
79347;BME280;68815;48.810;44.482;2023-12-20T07:55:02;100879;;;3.7;100
79347;BME280;68815;48.810;44.482;2023-12-20T07:58:05;100874;;;3.7;100
79347;BME280;68815;48.810;44.482;2023-12-20T08:01:07;100871;;;3.7;100
79347;BME280;68815;48.810;44.482;2023-12-20T08:04:09;100867;;;3.8;100
79347;BME280;68815;48.810;44.482;2023-12-20T08:07:11;100861;;;3.9;100
79347;BME280;68815;48.810;44.482;2023-12-20T08:10:13;100852;;;3.8;100
79347;BME280;68815;48.810;44.482;2023-12-20T08:13:14;100857;;;3.9;100
79347;BME280;68815;48.810;44.482;2023-12-20T08:16:17;100847;;;4;100
79347;BME280;68815;48.810;44.482;2023-12-20T08:19:19;100860;;;4;100
79347;BME280;68815;48.810;44.482;2023-12-20T08:22:21;100858;;;4;100
79347;BME280;68815;48.810;44.482;2023-12-20T08:25:23;100853;;;4;100
79347;BME280;68815;48.810;44.482;2023-12-20T08:28:25;100852;;;4.1;100
79347;BME280;68815;48.810;44.482;2023-12-20T08:31:27;100848;;;4.1;100
79347;BME280;68815;48.810;44.482;2023-12-20T08:34:29;100854;;;4.2;100
79347;BME280;68815;48.810;44.482;2023-12-20T08:37:31;100846;;;4.2;99.8
79347;BME280;68815;48.810;44.482;2023-12-20T08:40:33;100841;;;4.3;99.5
79347;BME280;68815;48.810;44.482;2023-12-20T08:43:35;100841;;;4.3;99
79347;BME280;68815;48.810;44.482;2023-12-20T08:46:37;100830;;;4.3;99
79347;BME280;68815;48.810;44.482;2023-12-20T08:49:39;100833;;;4.3;98.8
79347;BME280;68815;48.810;44.482;2023-12-20T08:52:41;100825;;;4.4;98.6
79347;BME280;68815;48.810;44.482;2023-12-20T08:55:43;100814;;;4.4;98.5
79347;BME280;68815;48.810;44.482;2023-12-20T08:58:45;100826;;;4.4;98.6
79347;BME280;68815;48.810;44.482;2023-12-20T09:01:47;100817;;;4.5;98.5
79347;BME280;68815;48.810;44.482;2023-12-20T09:04:49;100811;;;4.5;98.4
79347;BME280;68815;48.810;44.482;2023-12-20T09:07:50;100809;;;4.5;98.3
79347;BME280;68815;48.810;44.482;2023-12-20T09:10:52;100798;;;4.6;98.1
79347;BME280;68815;48.810;44.482;2023-12-20T09:13:54;100799;;;4.6;97.9
79347;BME280;68815;48.810;44.482;2023-12-20T09:16:57;100799;;;4.6;98
79347;BME280;68815;48.810;44.482;2023-12-20T09:19:59;100796;;;4.7;97.9
79347;BME280;68815;48.810;44.482;2023-12-20T09:23:01;100793;;;4.8;97.8
79347;BME280;68815;48.810;44.482;2023-12-20T09:26:03;100802;;;4.8;97.5
79347;BME280;68815;48.810;44.482;2023-12-20T09:29:05;100791;;;4.9;97.3
79347;BME280;68815;48.810;44.482;2023-12-20T09:32:07;100797;;;4.9;97.2
79347;BME280;68815;48.810;44.482;2023-12-20T09:35:09;100802;;;4.9;96.8
79347;BME280;68815;48.810;44.482;2023-12-20T09:38:10;100796;;;4.9;96.6
79347;BME280;68815;48.810;44.482;2023-12-20T09:41:12;100785;;;4.9;96.6
79347;BME280;68815;48.810;44.482;2023-12-20T09:44:16;100783;;;5;96.5
79347;BME280;68815;48.810;44.482;2023-12-20T09:47:19;100789;;;5.1;96.2
79347;BME280;68815;48.810;44.482;2023-12-20T09:50:25;100792;;;5.1;95.7
79347;BME280;68815;48.810;44.482;2023-12-20T09:53:28;100790;;;5.1;95.8
79347;BME280;68815;48.810;44.482;2023-12-20T09:56:31;100789;;;5.1;95.9
79347;BME280;68815;48.810;44.482;2023-12-20T09:59:33;100783;;;5;96
79347;BME280;68815;48.810;44.482;2023-12-20T10:02:36;100786;;;5;96.3
79347;BME280;68815;48.810;44.482;2023-12-20T10:05:43;100773;;;5.1;96.3
79347;BME280;68815;48.810;44.482;2023-12-20T10:08:44;100783;;;5.1;96
79347;BME280;68815;48.810;44.482;2023-12-20T10:11:46;100783;;;5.1;96.1
79347;BME280;68815;48.810;44.482;2023-12-20T10:14:48;100779;;;5.1;95.7
79347;BME280;68815;48.810;44.482;2023-12-20T10:17:50;100779;;;5.2;95.5
79347;BME280;68815;48.810;44.482;2023-12-20T10:20:52;100780;;;5.1;95.4
79347;BME280;68815;48.810;44.482;2023-12-20T10:23:55;100779;;;5.2;95.5
79347;BME280;68815;48.810;44.482;2023-12-20T10:27:01;100779;;;5.2;95.5
79347;BME280;68815;48.810;44.482;2023-12-20T10:30:05;100779;;;5.2;95.1
79347;BME280;68815;48.810;44.482;2023-12-20T10:33:08;100780;;;5.3;94.9
79347;BME280;68815;48.810;44.482;2023-12-20T10:36:10;100785;;;5.3;94.7
79347;BME280;68815;48.810;44.482;2023-12-20T10:39:14;100779;;;5.3;94.6
79347;BME280;68815;48.810;44.482;2023-12-20T10:42:17;100778;;;5.3;94.6
79347;BME280;68815;48.810;44.482;2023-12-20T10:45:19;100784;;;5.4;94.4
79347;BME280;68815;48.810;44.482;2023-12-20T10:48:22;100784;;;5.4;94.4
79347;BME280;68815;48.810;44.482;2023-12-20T10:51:25;100788;;;5.4;94.2
79347;BME280;68815;48.810;44.482;2023-12-20T10:54:27;100791;;;5.4;94.3
79347;BME280;68815;48.810;44.482;2023-12-20T10:57:29;100784;;;5.5;94.2
79347;BME280;68815;48.810;44.482;2023-12-20T11:00:32;100778;;;5.5;94.2
79347;BME280;68815;48.810;44.482;2023-12-20T11:03:36;100771;;;5.5;93.9
79347;BME280;68815;48.810;44.482;2023-12-20T11:06:43;100774;;;5.6;93.8
79347;BME280;68815;48.810;44.482;2023-12-20T11:09:57;100788;;;5.6;93.6
79347;BME280;68815;48.810;44.482;2023-12-20T11:13:06;100788;;;5.6;93.3
79347;BME280;68815;48.810;44.482;2023-12-20T11:16:11;100789;;;5.6;93.3
79347;BME280;68815;48.810;44.482;2023-12-20T11:19:12;100792;;;5.6;93.2
79347;BME280;68815;48.810;44.482;2023-12-20T11:22:14;100801;;;5.6;92.8
79347;BME280;68815;48.810;44.482;2023-12-20T11:25:17;100793;;;5.6;93.1
79347;BME280;68815;48.810;44.482;2023-12-20T11:28:22;100788;;;5.5;93.5
79347;BME280;68815;48.810;44.482;2023-12-20T11:31:27;100792;;;5.6;93.4
79347;BME280;68815;48.810;44.482;2023-12-20T11:34:33;100790;;;5.6;93.1
79347;BME280;68815;48.810;44.482;2023-12-20T11:37:37;100791;;;5.6;93.5
79347;BME280;68815;48.810;44.482;2023-12-20T11:40:41;100792;;;5.6;93.3
79347;BME280;68815;48.810;44.482;2023-12-20T11:43:43;100793;;;5.6;93.3
79347;BME280;68815;48.810;44.482;2023-12-20T11:46:46;100789;;;5.6;93.4
79347;BME280;68815;48.810;44.482;2023-12-20T11:49:48;100783;;;5.5;94
79347;BME280;68815;48.810;44.482;2023-12-20T11:52:51;100789;;;5.6;94
79347;BME280;68815;48.810;44.482;2023-12-20T11:55:54;100801;;;5.6;93.9
79347;BME280;68815;48.810;44.482;2023-12-20T11:58:56;100796;;;5.6;93.9
79347;BME280;68815;48.810;44.482;2023-12-20T12:01:58;100799;;;5.6;94
79347;BME280;68815;48.810;44.482;2023-12-20T12:05:00;100799;;;5.6;94.2
79347;BME280;68815;48.810;44.482;2023-12-20T12:08:02;100792;;;5.6;94.2
79347;BME280;68815;48.810;44.482;2023-12-20T12:11:04;100791;;;5.5;94.6
79347;BME280;68815;48.810;44.482;2023-12-20T12:14:07;100796;;;5.5;94.9
79347;BME280;68815;48.810;44.482;2023-12-20T12:17:10;100803;;;5.5;95.4
79347;BME280;68815;48.810;44.482;2023-12-20T12:20:12;100804;;;5.5;95.2
79347;BME280;68815;48.810;44.482;2023-12-20T12:23:22;100805;;;5.5;95.5
79347;BME280;68815;48.810;44.482;2023-12-20T12:26:25;100806;;;5.5;95.5
79347;BME280;68815;48.810;44.482;2023-12-20T12:29:27;100801;;;5.5;96.1
79347;BME280;68815;48.810;44.482;2023-12-20T12:32:29;100791;;;5.5;96.2
79347;BME280;68815;48.810;44.482;2023-12-20T12:35:31;100797;;;5.4;96.4
79347;BME280;68815;48.810;44.482;2023-12-20T12:38:33;100781;;;5.5;96.6
79347;BME280;68815;48.810;44.482;2023-12-20T12:41:35;100793;;;5.4;97
79347;BME280;68815;48.810;44.482;2023-12-20T12:44:37;100789;;;5.4;97.2
79347;BME280;68815;48.810;44.482;2023-12-20T12:47:39;100794;;;5.4;97.3
79347;BME280;68815;48.810;44.482;2023-12-20T12:50:41;100797;;;5.4;97.4
79347;BME280;68815;48.810;44.482;2023-12-20T12:53:43;100794;;;5.4;97.7
79347;BME280;68815;48.810;44.482;2023-12-20T12:56:45;100795;;;5.4;97.7
79347;BME280;68815;48.810;44.482;2023-12-20T12:59:47;100802;;;5.4;97.6
79347;BME280;68815;48.810;44.482;2023-12-20T13:02:49;100808;;;5.5;98.1
79347;BME280;68815;48.810;44.482;2023-12-20T13:05:51;100815;;;5.5;98.2
79347;BME280;68815;48.810;44.482;2023-12-20T13:08:53;100811;;;5.6;98
79347;BME280;68815;48.810;44.482;2023-12-20T13:11:55;100815;;;5.5;98.1
79347;BME280;68815;48.810;44.482;2023-12-20T13:14:56;100810;;;5.5;98.3
79347;BME280;68815;48.810;44.482;2023-12-20T13:17:58;100805;;;5.5;98.9
79347;BME280;68815;48.810;44.482;2023-12-20T13:21:00;100807;;;5.5;99.2
79347;BME280;68815;48.810;44.482;2023-12-20T13:24:02;100799;;;5.5;99.5
79347;BME280;68815;48.810;44.482;2023-12-20T13:27:06;100804;;;5.4;99.7
79347;BME280;68815;48.810;44.482;2023-12-20T13:30:08;100798;;;5.4;100
79347;BME280;68815;48.810;44.482;2023-12-20T13:33:11;100802;;;5.4;100
79347;BME280;68815;48.810;44.482;2023-12-20T13:36:13;100797;;;5.5;100
79347;BME280;68815;48.810;44.482;2023-12-20T13:39:15;100792;;;5.4;100
79347;BME280;68815;48.810;44.482;2023-12-20T13:42:16;100793;;;5.4;100
79347;BME280;68815;48.810;44.482;2023-12-20T13:45:19;100798;;;5.4;100
79347;BME280;68815;48.810;44.482;2023-12-20T13:48:21;100808;;;5.5;100
79347;BME280;68815;48.810;44.482;2023-12-20T13:51:23;100804;;;5.5;99.9
79347;BME280;68815;48.810;44.482;2023-12-20T13:54:25;100801;;;5.6;99.3
79347;BME280;68815;48.810;44.482;2023-12-20T13:57:27;100797;;;5.7;98.7
79347;BME280;68815;48.810;44.482;2023-12-20T14:00:29;100798;;;5.7;98.6
79347;BME280;68815;48.810;44.482;2023-12-20T14:03:30;100789;;;5.6;99
79347;BME280;68815;48.810;44.482;2023-12-20T14:06:32;100795;;;5.5;99.7
79347;BME280;68815;48.810;44.482;2023-12-20T14:09:34;100794;;;5.5;99.8
79347;BME280;68815;48.810;44.482;2023-12-20T14:12:37;100796;;;5.5;99.9
79347;BME280;68815;48.810;44.482;2023-12-20T14:15:39;100804;;;5.5;99.8
79347;BME280;68815;48.810;44.482;2023-12-20T14:18:41;100795;;;5.6;99.4
79347;BME280;68815;48.810;44.482;2023-12-20T14:21:43;100798;;;5.5;99.3
79347;BME280;68815;48.810;44.482;2023-12-20T14:24:46;100797;;;5.5;99.7
79347;BME280;68815;48.810;44.482;2023-12-20T14:27:49;100793;;;5.5;99.7
79347;BME280;68815;48.810;44.482;2023-12-20T14:30:50;100783;;;5.4;99.5
79347;BME280;68815;48.810;44.482;2023-12-20T14:33:53;100778;;;5.3;100
79347;BME280;68815;48.810;44.482;2023-12-20T14:36:54;100783;;;5.3;100
79347;BME280;68815;48.810;44.482;2023-12-20T14:39:56;100784;;;5.3;100
79347;BME280;68815;48.810;44.482;2023-12-20T14:42:58;100785;;;5.3;100
79347;BME280;68815;48.810;44.482;2023-12-20T14:46:00;100782;;;5.3;100
79347;BME280;68815;48.810;44.482;2023-12-20T14:49:02;100801;;;5.3;100
79347;BME280;68815;48.810;44.482;2023-12-20T14:52:04;100800;;;5.3;100
79347;BME280;68815;48.810;44.482;2023-12-20T14:55:06;100802;;;5.3;100
79347;BME280;68815;48.810;44.482;2023-12-20T14:58:10;100797;;;5.4;100
79347;BME280;68815;48.810;44.482;2023-12-20T15:01:11;100806;;;5.4;100
79347;BME280;68815;48.810;44.482;2023-12-20T15:04:13;100805;;;5.4;100
79347;BME280;68815;48.810;44.482;2023-12-20T15:07:16;100808;;;5.4;100
79347;BME280;68815;48.810;44.482;2023-12-20T15:10:18;100815;;;5.4;100
79347;BME280;68815;48.810;44.482;2023-12-20T15:13:20;100807;;;5.4;100
79347;BME280;68815;48.810;44.482;2023-12-20T15:16:23;100816;;;5.4;100
79347;BME280;68815;48.810;44.482;2023-12-20T15:19:24;100821;;;5.4;100
79347;BME280;68815;48.810;44.482;2023-12-20T15:22:26;100816;;;5.4;100
79347;BME280;68815;48.810;44.482;2023-12-20T15:25:28;100812;;;5.5;100
79347;BME280;68815;48.810;44.482;2023-12-20T15:28:31;100809;;;5.5;100
79347;BME280;68815;48.810;44.482;2023-12-20T15:31:34;100813;;;5.6;100
79347;BME280;68815;48.810;44.482;2023-12-20T15:34:36;100809;;;5.6;100
79347;BME280;68815;48.810;44.482;2023-12-20T15:37:38;100815;;;5.6;99.9
79347;BME280;68815;48.810;44.482;2023-12-20T15:40:40;100810;;;5.6;100
79347;BME280;68815;48.810;44.482;2023-12-20T15:43:42;100812;;;5.6;100
79347;BME280;68815;48.810;44.482;2023-12-20T15:46:45;100809;;;5.5;100
79347;BME280;68815;48.810;44.482;2023-12-20T15:49:46;100813;;;5.5;100
79347;BME280;68815;48.810;44.482;2023-12-20T15:52:48;100813;;;5.6;100
79347;BME280;68815;48.810;44.482;2023-12-20T15:55:50;100814;;;5.6;99.8
79347;BME280;68815;48.810;44.482;2023-12-20T15:58:52;100820;;;5.6;99.6
79347;BME280;68815;48.810;44.482;2023-12-20T16:01:54;100823;;;5.6;99.6
79347;BME280;68815;48.810;44.482;2023-12-20T16:04:56;100829;;;5.6;99.2
79347;BME280;68815;48.810;44.482;2023-12-20T16:07:57;100834;;;5.7;99.1
79347;BME280;68815;48.810;44.482;2023-12-20T16:10:59;100833;;;5.6;98.5
79347;BME280;68815;48.810;44.482;2023-12-20T16:14:01;100825;;;5.7;99.5
79347;BME280;68815;48.810;44.482;2023-12-20T16:17:03;100824;;;5.9;98.7
79347;BME280;68815;48.810;44.482;2023-12-20T16:20:06;100828;;;6.1;97.1
79347;BME280;68815;48.810;44.482;2023-12-20T16:23:08;100828;;;6;96.7
79347;BME280;68815;48.810;44.482;2023-12-20T16:26:12;100831;;;6.1;96.5
79347;BME280;68815;48.810;44.482;2023-12-20T16:29:14;100825;;;6.2;96.8
79347;BME280;68815;48.810;44.482;2023-12-20T16:32:17;100823;;;6.1;96.2
79347;BME280;68815;48.810;44.482;2023-12-20T16:35:19;100818;;;6.1;96
79347;BME280;68815;48.810;44.482;2023-12-20T16:38:20;100812;;;6.1;96.5
79347;BME280;68815;48.810;44.482;2023-12-20T16:41:22;100821;;;6;95.5
79347;BME280;68815;48.810;44.482;2023-12-20T16:44:25;100820;;;5.9;95.9
79347;BME280;68815;48.810;44.482;2023-12-20T16:47:26;100828;;;5.8;96.7
79347;BME280;68815;48.810;44.482;2023-12-20T16:50:28;100822;;;5.8;96.5
79347;BME280;68815;48.810;44.482;2023-12-20T16:53:30;100818;;;5.8;96.9
79347;BME280;68815;48.810;44.482;2023-12-20T16:56:32;100821;;;5.8;96.8
79347;BME280;68815;48.810;44.482;2023-12-20T16:59:34;100817;;;5.9;96.6
79347;BME280;68815;48.810;44.482;2023-12-20T17:02:36;100816;;;5.8;96.6
79347;BME280;68815;48.810;44.482;2023-12-20T17:05:38;100816;;;5.7;97.2
79347;BME280;68815;48.810;44.482;2023-12-20T17:08:41;100822;;;5.8;97.2